• Join FlightAware (Why Join?)
  • Login
  • US Flag 
01:36PM EDT


 

Airport Tracker/Info


-or-


 

Live Flight TrackerFlight Track Log ✈ N173AA ✈ 11-Apr-2013 ✈ KPGV - KISM

Flight Track Log - Related Links

Times and Time Zones

All times are in EDT time to prevent confusion due to time zone crossing. See the N173AA flight status page for this flight to view local times or setup timezone preferences in your user account.

Time Position Orientation Groundspeed Altitude Reporting Facility
EDT Latitude Longitude Course Direction KTS MPH feet Rate Location/Type
02:37PM 35.5506 -77.4864 192° South 363 418 4,900  Level Washington Center
02:38PM 35.4983 -77.5003 192° South 348 400 7,100 1,920 Climbing Washington Center
02:39PM 35.4558 -77.5428 219° Southwest 267 307 8,800 1,620 Climbing Washington Center
02:40PM 35.4072 -77.5875 217° Southwest 238 274 10,400 1,620 Climbing Washington Center
02:41PM 35.3583 -77.6372 220° Southwest 226 260 12,100 1,680 Climbing Washington Center
02:42PM 35.3094 -77.6894 221° Southwest 232 267 13,800 1,620 Climbing Washington Center
02:43PM 35.2561 -77.7439 220° Southwest 239 275 15,400 1,560 Climbing Washington Center
02:44PM 35.2072 -77.8011 224° Southwest 239 275 17,000 1,260 Climbing Washington Center
02:45PM 35.1519 -77.8553 219° Southwest 250 288 18,000 900 Climbing Washington Center
02:46PM 35.0925 -77.9122 218° Southwest 263 303 18,900 1,140 Climbing Washington Center
02:47PM 35.0328 -77.9764 221° Southwest 274 315 20,300 1,320 Climbing Washington Center
02:48PM 34.9731 -78.0356 219° Southwest 281 323 21,600 1,320 Climbing Washington Center
02:49PM 34.9156 -78.0919 219° Southwest 281 323 23,000 1,200 Climbing Washington Center
02:50PM 34.8583 -78.1433 216° Southwest 276 318 24,100 480 Climbing Washington Center
02:51PM 34.7942 -78.2097 220° Southwest 283 326 24,000 -60 Descending Washington Center
02:52PM 34.7261 -78.2731 217° Southwest 301 346 24,000  Level Washington Center
02:53PM 34.6578 -78.3417 220° Southwest 312 359 24,000  Level Washington Center
02:54PM 34.6114 -78.3897 220° Southwest 318 366 24,000  Level Jacksonville Center
02:55PM 34.5467 -78.4511 218° Southwest 306 352 24,000  Level Jacksonville Center
02:56PM 34.4806 -78.5250 223° Southwest 311 358 24,100  Climbing Jacksonville Center
02:57PM 34.4081 -78.6017 221° Southwest 317 365 24,000 -60 Descending Jacksonville Center
02:58PM 34.3414 -78.6628 217° Southwest 322 371 24,000  Level Jacksonville Center
02:59PM 34.2706 -78.7292 218° Southwest 328 377 24,000  Level Jacksonville Center
03:00PM 34.1997 -78.7978 219° Southwest 328 377 24,000  Level Jacksonville Center
03:01PM 34.1289 -78.8639 218° Southwest 328 377 24,000  Level Jacksonville Center
03:02PM 34.0600 -78.9322 219° Southwest 328 377 24,000  Level Jacksonville Center
03:03PM 33.9872 -79.0006 218° Southwest 333 383 24,000  Level Jacksonville Center
03:04PM 33.9100 -79.0742 218° Southwest 338 389 24,000  Level Jacksonville Center
03:05PM 33.8389 -79.1397 217° Southwest 338 389 24,000  Level Jacksonville Center
03:06PM 33.7700 -79.2075 219° Southwest 338 389 24,000  Level Jacksonville Center
03:07PM 33.7053 -79.2728 220° Southwest 333 383 24,000  Level Jacksonville Center
03:08PM 33.6361 -79.3403 219° Southwest 325 374 24,000  Level Jacksonville Center
03:09PM 33.5650 -79.4056 217° Southwest 325 374 24,000  Level Jacksonville Center
03:10PM 33.4939 -79.4756 219° Southwest 325 374 24,000  Level Jacksonville Center
03:11PM 33.4247 -79.5403 218° Southwest 325 374 24,000  Level Jacksonville Center
03:12PM 33.3533 -79.6078 218° Southwest 325 374 24,000  Level Jacksonville Center
03:13PM 33.2822 -79.6775 219° Southwest 325 374 24,000  Level Jacksonville Center
03:14PM 33.2211 -79.7367 219° Southwest 325 374 24,000  Level Jacksonville Center
03:15PM 33.1494 -79.8014 217° Southwest 325 374 24,000  Level Jacksonville Center
03:16PM 33.0781 -79.8658 217° Southwest 325 374 24,000  Level Jacksonville Center
03:17PM 33.0067 -79.9325 218° Southwest 325 374 24,000  Level Jacksonville Center
03:18PM 32.9331 -79.9994 217° Southwest 325 374 24,000  Level Jacksonville Center
03:19PM 32.8592 -80.0611 215° Southwest 325 374 24,000  Level Jacksonville Center
03:20PM 32.7833 -80.1178 212° Southwest 331 381 24,000  Level Jacksonville Center
03:21PM 32.7050 -80.1719 210° Southwest 331 381 24,000  Level Jacksonville Center
03:22PM 32.6225 -80.2139 203° Southwest 325 374 24,000  Level Jacksonville Center
03:23PM 32.5400 -80.2558 203° Southwest 325 374 24,000  Level Jacksonville Center
03:24PM 32.4531 -80.2928 200° South 331 381 24,000  Level Jacksonville Center
03:25PM 32.3681 -80.3297 200° South 331 381 24,000  Level Jacksonville Center
03:26PM 32.2833 -80.3689 201° Southwest 326 375 24,000  Level Jacksonville Center
03:27PM 32.1964 -80.4081 201° Southwest 326 375 24,000  Level Jacksonville Center
03:28PM 32.1033 -80.4500 201° Southwest 323 372 24,000  Level Jacksonville Center
03:29PM 32.0247 -80.4839 200° South 328 377 24,000  Level Jacksonville Center
03:30PM 31.9314 -80.5256 201° Southwest 328 377 24,000  Level Jacksonville Center
03:31PM 31.8550 -80.5617 202° Southwest 328 377 24,000  Level Jacksonville Center
03:32PM 31.7639 -80.6103 204° Southwest 333 383 24,000  Level Jacksonville Center
03:33PM 31.6811 -80.6564 205° Southwest 333 383 24,000  Level Jacksonville Center
03:34PM 31.5983 -80.6997 204° Southwest 338 389 24,000  Level Jacksonville Center
03:35PM 31.5136 -80.7433 204° Southwest 333 383 24,000  Level Jacksonville Center
03:36PM 31.4331 -80.7889 206° Southwest 328 377 24,000  Level Jacksonville Center
03:37PM 31.3606 -80.8294 206° Southwest 328 377 24,000  Level Jacksonville Center
03:38PM 31.2675 -80.8800 205° Southwest 339 390 24,000  Level Jacksonville Center
03:39PM 31.1825 -80.9183 201° Southwest 339 390 24,000  Level Jacksonville Center
03:40PM 31.0972 -80.9542 200° South 325 374 24,000  Level Jacksonville Center
03:41PM 31.0122 -80.9897 200° South 333 383 24,000  Level Jacksonville Center
03:42PM 30.9231 -81.0231 198° South 328 377 24,000  Level Jacksonville Center
03:43PM 30.8381 -81.0586 200° South 328 377 24,000  Level Jacksonville Center
03:44PM 30.7508 -81.0942 199° South 328 377 24,000  Level Jacksonville Center
03:45PM 30.6656 -81.1344 202° Southwest 328 377 24,000  Level Jacksonville Center
03:46PM 30.5764 -81.1625 195° South 328 377 24,000  Level Jacksonville Center
03:47PM 30.4844 -81.1594 178° South 323 372 24,000  Level Jacksonville Center
03:48PM 30.3883 -81.1539 177° South 329 379 24,000  Level Jacksonville Center
03:49PM 30.2922 -81.1436 175° South 336 387 24,000  Level Jacksonville Center
03:50PM 30.1981 -81.1381 177° South 341 392 24,000  Level Jacksonville Center
03:51PM 30.1042 -81.1328 177° South 346 398 24,000  Level Jacksonville Center
03:52PM 30.0100 -81.1272 177° South 346 398 24,000  Level Jacksonville Center
03:53PM 29.9161 -81.1264 180° South 346 398 24,000  Level Jacksonville Center
03:54PM 29.8200 -81.1283 181° South 346 398 24,000  Level Jacksonville Center
03:55PM 29.7261 -81.1228 177° South 346 398 24,000 -240 Level Jacksonville Center
03:56PM 29.6300 -81.1222 180° South 346 398 23,600 -900 Descending Jacksonville Center
03:57PM 29.5381 -81.1214 180° South 346 398 22,200 -1,500 Descending Jacksonville Center
03:58PM 29.4547 -81.1231 181° South 340 391 20,600 -2,100 Descending Jacksonville Center
03:59PM 29.3647 -81.1150 176° South 334 384 18,100 -2,700 Descending Jacksonville Center
04:00PM 29.2708 -81.1192 182° South 334 384 15,200 -2,400 Descending Jacksonville Center
04:01PM 29.1831 -81.1089 174° South 324 373 13,300 -1,320 Descending Jacksonville Center
04:02PM 29.1058 -81.1031 176° South 310 357 12,600 -660 Descending Jacksonville Center
04:03PM 29.0306 -81.0972 176° South 285 328 12,000 -360 Descending Jacksonville Center
04:04PM 28.9597 -81.0986 181° South 274 315 11,900 -600 Descending Jacksonville Center
04:05PM 28.8908 -81.1022 183° South 255 293 10,800 -1,260 Descending Jacksonville Center
04:05PM 28.8500 -81.1000 177° South 247 284 10,100 -960 Descending Orlando TRACON
04:06PM 28.8000 -81.1167 196° South 221 254 9,500 -840 Descending Orlando TRACON
04:07PM 28.7500 -81.1500 210° Southwest 219 252 8,500 -780 Descending Orlando TRACON
04:08PM 28.7000 -81.1833 210° Southwest 230 265 8,000 -300 Descending Orlando TRACON
04:09PM 28.6500 -81.2500 229° Southwest 230 265 8,000 -420 Level Orlando TRACON
04:10PM 28.6167 -81.3167 240° Southwest 243 280 7,200 -960 Descending Orlando TRACON
04:11PM 28.6000 -81.3833 254° West 224 258 6,100 -960 Descending Orlando TRACON
04:12PM 28.5833 -81.4500 254° West 228 262 5,400 -780 Descending Orlando TRACON
04:13PM 28.5667 -81.5167 254° West 220 253 4,700 -1,200 Descending Orlando TRACON
04:14PM 28.5167 -81.5167 180° South 195 224 3,200 -1,260 Descending Orlando TRACON
04:15PM 28.4667 -81.5167 180° South 169 194 2,400 -660 Descending Orlando TRACON
04:16PM 28.4333 -81.5000 156° South 168 193 1,900 -360 Descending Orlando TRACON
04:17PM 28.3833 -81.4833 164° South 139 160 1,700 -300 Descending Orlando TRACON
04:18PM 28.3500 -81.4833 180° South 146 168 1,400 -540 Descending Orlando TRACON
04:19PM 28.3167 -81.4500 139° Southeast 111 128 600 -780 Descending Orlando TRACON
04:21PM 28.2898 -81.4371 158° South  Level Estimated
04:28PM 28.2898 -81.4371 158° South  Level Estimated
04:29PM 28.2898 -81.4371 158° South  Level Estimated
04:30PM 28.2898 -81.4371 158° South  Level Estimated
04:31PM 28.2898 -81.4371 158° South  Level Estimated